Time;durP1;ratioP1;P1;durP2;ratioP2;P2;SDS_P1;SDS_P2;PMS_P1;PMS_P2;Temp;Humidity;BMP_temperature;BMP_pressure;BME280_temperature;BME280_humidity;BME280_pressure;Samples;Min_cycle;Max_cycle;Signal;HPM_P1;HPM_P2
2021/03/29 00:00:50;;;;;;;4.75;1.90;;;9.00;78.10;;;;;;2061452;28;20109;-82
2021/03/29 00:01:51;;;;;;;4.30;1.95;;;9.00;78.10;;;;;;2056606;28;20030;-83
2021/03/29 00:02:52;;;;;;;5.97;1.80;;;9.00;78.10;;;;;;2048719;28;20039;-82
2021/03/29 00:03:53;;;;;;;4.82;1.73;;;9.00;78.20;;;;;;2058678;28;20452;-81
2021/03/29 00:04:54;;;;;;;4.22;1.83;;;9.00;78.20;;;;;;2072477;28;20037;-82
2021/03/29 00:05:55;;;;;;;3.78;1.80;;;9.00;78.20;;;;;;2080343;28;20459;-82
2021/03/29 00:06:59;;;;;;;5.38;1.90;;;9.00;78.20;;;;;;2088711;28;20068;-82
2021/03/29 00:08:15;;;;;;;3.95;2.08;;;9.00;78.10;;;;;;2088589;28;20533;-82
2021/03/29 00:09:17;;;;;;;4.70;1.70;;;9.00;78.10;;;;;;2082877;28;20116;-83
2021/03/29 00:10:19;;;;;;;4.78;1.70;;;9.00;78.20;;;;;;2072571;28;20060;-82
2021/03/29 00:11:20;;;;;;;5.00;2.00;;;9.00;78.10;;;;;;2073100;28;20033;-82
2021/03/29 00:12:23;;;;;;;5.05;1.67;;;9.00;78.20;;;;;;2088025;28;20029;-81
2021/03/29 00:13:26;;;;;;;5.43;2.15;;;9.00;78.20;;;;;;2096496;28;20052;-82
2021/03/29 00:14:27;;;;;;;3.63;1.92;;;8.90;78.20;;;;;;2089753;28;20078;-82
2021/03/29 00:15:32;;;;;;;6.13;1.98;;;8.90;78.80;;;;;;2089708;28;20014;-81
2021/03/29 00:16:34;;;;;;;5.88;2.08;;;8.90;78.20;;;;;;2097531;28;20021;-83
2021/03/29 00:17:35;;;;;;;4.90;1.92;;;8.90;78.30;;;;;;2089101;28;20044;-82
2021/03/29 00:18:36;;;;;;;4.95;2.35;;;8.90;78.30;;;;;;2077527;28;20033;-83
2021/03/29 00:19:38;;;;;;;4.53;1.70;;;8.90;78.30;;;;;;2080863;28;20044;-83
2021/03/29 00:20:42;;;;;;;4.80;1.80;;;8.90;78.30;;;;;;2072491;28;20081;-82
2021/03/29 00:21:42;;;;;;;4.80;1.98;;;8.90;78.30;;;;;;2072976;28;20395;-82
2021/03/29 00:22:43;;;;;;;5.68;1.75;;;8.90;78.40;;;;;;2073120;28;20030;-83
2021/03/29 00:23:44;;;;;;;4.03;2.20;;;8.90;78.40;;;;;;2066557;28;20061;-82
2021/03/29 00:24:46;;;;;;;3.28;1.70;;;8.90;78.40;;;;;;2072787;28;20030;-82
2021/03/29 00:25:47;;;;;;;3.55;1.98;;;8.80;78.40;;;;;;2072427;28;20038;-83
2021/03/29 00:26:48;;;;;;;5.45;1.85;;;8.90;78.40;;;;;;2061749;28;20045;-83
2021/03/29 00:27:48;;;;;;;4.45;2.00;;;8.80;78.30;;;;;;2080684;28;20026;-83
2021/03/29 00:28:49;;;;;;;4.88;2.30;;;8.90;78.40;;;;;;2082908;28;20064;-83
2021/03/29 00:29:50;;;;;;;3.92;2.00;;;8.80;78.30;;;;;;2072049;28;20041;-83
2021/03/29 00:30:51;;;;;;;5.35;2.45;;;8.80;78.30;;;;;;2056381;28;20117;-82
2021/03/29 00:31:52;;;;;;;6.38;2.47;;;8.80;78.30;;;;;;2074895;28;20120;-83
2021/03/29 00:32:54;;;;;;;3.75;1.88;;;8.80;78.40;;;;;;2080821;28;20030;-82
2021/03/29 00:33:55;;;;;;;5.53;2.30;;;8.80;78.30;;;;;;2088883;28;20035;-83
2021/03/29 00:34:57;;;;;;;5.60;2.08;;;8.80;78.40;;;;;;2080078;28;20065;-83
2021/03/29 00:35:58;;;;;;;5.65;2.20;;;8.80;78.40;;;;;;2074634;28;20029;-83
2021/03/29 00:37:00;;;;;;;4.72;2.10;;;8.80;78.40;;;;;;2056463;28;20178;-83
2021/03/29 00:38:02;;;;;;;5.30;2.20;;;8.80;78.40;;;;;;2064099;28;20353;-82
2021/03/29 00:39:06;;;;;;;5.45;2.22;;;8.80;78.40;;;;;;2071955;28;20068;-83
2021/03/29 00:40:08;;;;;;;5.22;2.20;;;8.80;78.40;;;;;;2065179;28;20034;-83
2021/03/29 00:41:11;;;;;;;5.55;2.13;;;8.80;78.40;;;;;;2074517;28;20037;-83
2021/03/29 00:42:11;;;;;;;5.22;2.20;;;8.80;79.10;;;;;;2081237;28;20037;-82
2021/03/29 00:43:21;;;;;;;4.80;2.15;;;8.80;78.40;;;;;;2066021;28;20122;-83
2021/03/29 00:44:23;;;;;;;3.90;1.75;;;8.80;78.50;;;;;;2073493;28;20117;-83
2021/03/29 00:45:25;;;;;;;4.47;2.10;;;8.80;78.50;;;;;;2089487;28;20033;-82
2021/03/29 00:46:27;;;;;;;3.80;1.90;;;8.70;78.40;;;;;;2079893;28;20037;-83
2021/03/29 00:47:27;;;;;;;4.03;2.00;;;8.70;78.40;;;;;;2072652;28;20030;-82
2021/03/29 00:48:30;;;;;;;4.53;2.05;;;8.70;78.40;;;;;;2072928;28;20032;-82
2021/03/29 00:49:32;;;;;;;4.70;2.15;;;8.70;79.10;;;;;;2072603;28;20026;-82
2021/03/29 00:50:32;;;;;;;4.45;1.88;;;8.70;78.40;;;;;;2076926;28;20132;-82
2021/03/29 00:51:36;;;;;;;4.55;2.17;;;8.70;78.50;;;;;;2080703;28;20021;-82
2021/03/29 00:52:37;;;;;;;6.05;2.20;;;8.70;78.50;;;;;;2080613;28;20021;-82
2021/03/29 00:53:41;;;;;;;3.92;2.08;;;8.70;78.50;;;;;;2073319;28;20037;-82
2021/03/29 00:54:43;;;;;;;5.15;1.90;;;8.70;78.50;;;;;;2074332;28;20337;-82
2021/03/29 00:55:47;;;;;;;4.22;1.80;;;8.70;78.50;;;;;;2070848;28;20030;-82
2021/03/29 00:56:49;;;;;;;4.75;2.10;;;8.70;78.50;;;;;;2074358;28;20511;-82
2021/03/29 00:57:51;;;;;;;5.82;2.40;;;8.70;78.60;;;;;;2070590;28;20384;-83
2021/03/29 00:58:53;;;;;;;4.97;2.03;;;8.70;78.60;;;;;;2066182;28;20031;-83
2021/03/29 00:59:54;;;;;;;4.03;2.10;;;8.70;78.50;;;;;;2065815;28;20105;-83
2021/03/29 01:01:19;;;;;;;5.28;1.88;;;8.70;78.50;;;;;;2063806;28;20034;-83
2021/03/29 01:02:20;;;;;;;4.47;1.80;;;8.70;78.60;;;;;;2073813;28;20034;-83
2021/03/29 01:03:24;;;;;;;4.78;2.33;;;8.70;78.50;;;;;;2083223;28;20060;-82
2021/03/29 01:04:25;;;;;;;4.93;1.85;;;8.60;78.50;;;;;;2081928;28;20120;-83
2021/03/29 01:05:26;;;;;;;4.53;1.80;;;8.60;78.50;;;;;;2072287;28;20022;-82
2021/03/29 01:06:35;;;;;;;4.75;1.83;;;8.70;78.50;;;;;;2082040;28;20036;-83
2021/03/29 01:07:36;;;;;;;4.22;2.00;;;8.60;78.50;;;;;;2081876;28;20391;-82
2021/03/29 01:08:39;;;;;;;3.83;1.85;;;8.60;78.50;;;;;;2066624;28;20057;-83
2021/03/29 01:09:41;;;;;;;6.72;1.85;;;8.60;78.60;;;;;;2079549;28;20036;-82
2021/03/29 01:10:42;;;;;;;5.53;1.88;;;8.60;78.50;;;;;;2082411;28;20067;-83
2021/03/29 01:11:48;;;;;;;5.47;1.80;;;8.60;78.50;;;;;;2073554;28;20041;-83
2021/03/29 01:12:49;;;;;;;5.03;2.42;;;8.60;78.50;;;;;;2074866;28;20018;-83
2021/03/29 01:14:05;;;;;;;4.68;2.08;;;8.60;78.50;;;;;;2078924;28;20055;-83
2021/03/29 01:15:08;;;;;;;6.60;1.92;;;8.60;78.50;;;;;;2075152;28;20026;-83
2021/03/29 01:16:12;;;;;;;4.55;2.00;;;8.60;79.00;;;;;;2081943;28;20024;-83
2021/03/29 01:17:23;;;;;;;4.88;2.03;;;8.60;78.40;;;;;;2084222;28;20021;-83
2021/03/29 01:18:25;;;;;;;4.53;1.80;;;8.60;78.40;;;;;;2082800;28;20025;-83
2021/03/29 01:19:51;;;;;;;4.00;1.65;;;8.60;78.40;;;;;;2082048;28;20041;-83
2021/03/29 01:21:28;;;;;;;3.75;1.60;;;8.60;78.40;;;;;;2089352;28;20028;-82
2021/03/29 01:22:33;;;;;;;3.78;1.70;;;8.60;78.30;;;;;;2089555;28;20119;-82
2021/03/29 01:23:35;;;;;;;5.20;1.83;;;8.60;78.30;;;;;;2089905;28;20116;-83
2021/03/29 01:24:44;;;;;;;4.65;1.75;;;8.60;78.30;;;;;;2081464;28;20036;-83
2021/03/29 01:26:07;;;;;;;6.78;1.88;;;8.60;78.30;;;;;;2081580;28;20107;-83
2021/03/29 01:27:08;;;;;;;5.50;1.95;;;8.60;78.30;;;;;;2059255;28;20031;-83
2021/03/29 01:28:22;;;;;;;4.68;1.85;;;8.60;78.30;;;;;;2079847;28;20041;-83
2021/03/29 01:29:30;;;;;;;5.68;2.17;;;8.60;78.30;;;;;;2088805;28;20069;-83
2021/03/29 01:30:33;;;;;;;5.32;1.90;;;8.60;78.30;;;;;;2088491;28;20057;-83
2021/03/29 01:31:36;;;;;;;4.35;1.90;;;8.60;78.40;;;;;;2088624;28;20805;-83
2021/03/29 01:32:39;;;;;;;4.95;2.00;;;8.60;78.30;;;;;;2081739;28;20033;-83
2021/03/29 01:33:41;;;;;;;5.10;2.20;;;8.60;78.30;;;;;;2073712;28;20030;-83
2021/03/29 01:34:42;;;;;;;5.05;2.20;;;8.60;78.30;;;;;;2074365;28;20041;-83
2021/03/29 01:35:50;;;;;;;5.13;1.88;;;8.60;78.30;;;;;;2065334;28;20030;-83
2021/03/29 01:36:51;;;;;;;6.18;2.35;;;8.60;78.20;;;;;;2067404;28;20475;-83
2021/03/29 01:37:52;;;;;;;5.28;2.20;;;8.60;78.20;;;;;;2067274;28;20026;-83
2021/03/29 01:38:54;;;;;;;4.57;2.03;;;8.60;78.20;;;;;;2065912;28;20027;-83
2021/03/29 01:39:56;;;;;;;6.57;2.03;;;8.70;78.20;;;;;;2080721;28;20038;-83
2021/03/29 01:40:58;;;;;;;4.90;2.10;;;8.60;78.20;;;;;;2081788;28;20096;-83
2021/03/29 01:42:00;;;;;;;4.70;1.80;;;8.70;78.20;;;;;;2073241;28;20400;-82
2021/03/29 01:43:02;;;;;;;4.75;2.30;;;8.70;78.20;;;;;;2073645;28;20057;-82
2021/03/29 01:44:03;;;;;;;5.45;1.90;;;8.70;78.10;;;;;;2075247;28;20096;-83
2021/03/29 01:45:04;;;;;;;6.05;2.30;;;8.70;78.10;;;;;;2073310;28;20034;-83
2021/03/29 01:46:06;;;;;;;5.32;1.95;;;8.70;78.10;;;;;;2069142;28;20034;-83
2021/03/29 01:47:07;;;;;;;7.10;2.20;;;8.70;78.10;;;;;;2073661;28;20030;-82
2021/03/29 01:48:10;;;;;;;5.68;2.20;;;8.70;78.10;;;;;;2081793;28;20026;-82
2021/03/29 01:49:12;;;;;;;3.90;1.83;;;8.70;78.10;;;;;;2058895;28;20030;-82
2021/03/29 01:50:23;;;;;;;5.97;2.10;;;8.70;78.10;;;;;;2065540;28;20027;-82
2021/03/29 01:51:25;;;;;;;6.32;2.13;;;8.80;78.10;;;;;;2088130;28;20033;-83
2021/03/29 01:52:26;;;;;;;5.22;2.00;;;8.70;78.00;;;;;;2077870;28;20083;-83
2021/03/29 01:53:28;;;;;;;6.22;1.98;;;8.80;78.00;;;;;;2065392;28;20026;-82
2021/03/29 01:54:30;;;;;;;5.78;2.20;;;8.80;78.10;;;;;;2075646;28;20112;-83
2021/03/29 01:55:32;;;;;;;4.93;2.10;;;8.80;78.00;;;;;;2065624;28;20026;-83
2021/03/29 01:56:33;;;;;;;6.13;2.17;;;8.80;78.00;;;;;;2065758;28;20378;-83
2021/03/29 01:57:34;;;;;;;4.25;2.20;;;8.80;78.00;;;;;;2089584;28;20119;-83
2021/03/29 01:58:35;;;;;;;5.82;2.25;;;8.80;78.00;;;;;;2081857;28;20045;-83
2021/03/29 01:59:37;;;;;;;5.88;2.00;;;8.80;78.00;;;;;;2073284;28;20133;-83
2021/03/29 02:00:42;;;;;;;4.63;1.85;;;8.80;78.00;;;;;;2081838;28;20460;-83
2021/03/29 02:01:43;;;;;;;4.63;1.70;;;8.90;78.00;;;;;;2074922;28;20021;-83
2021/03/29 02:02:44;;;;;;;5.03;1.90;;;8.80;78.00;;;;;;2072319;28;20125;-83
2021/03/29 02:03:46;;;;;;;7.30;2.33;;;8.80;78.00;;;;;;2070619;28;20046;-82
2021/03/29 02:04:49;;;;;;;5.60;2.72;;;8.80;77.90;;;;;;2073106;28;20045;-82
2021/03/29 02:05:51;;;;;;;6.28;2.00;;;8.90;78.00;;;;;;2084198;28;20041;-82
2021/03/29 02:06:51;;;;;;;4.93;1.80;;;8.90;77.90;;;;;;2080244;28;20043;-82
2021/03/29 02:07:52;;;;;;;4.43;1.90;;;8.90;77.90;;;;;;2073716;28;20081;-82
2021/03/29 02:08:55;;;;;;;4.90;2.00;;;8.90;77.80;;;;;;2081225;28;20480;-83
2021/03/29 02:09:55;;;;;;;4.80;1.95;;;9.00;77.80;;;;;;2073498;28;20038;-83
2021/03/29 02:10:58;;;;;;;4.57;2.13;;;8.90;77.70;;;;;;2075584;28;20056;-82
2021/03/29 02:11:59;;;;;;;5.68;2.33;;;8.90;77.70;;;;;;2077103;28;20037;-83
2021/03/29 02:13:08;;;;;;;5.63;2.30;;;8.90;77.70;;;;;;2081512;28;20033;-82
2021/03/29 02:14:10;;;;;;;4.85;1.88;;;9.00;77.70;;;;;;2081284;28;20056;-82
2021/03/29 02:15:19;;;;;;;4.13;1.80;;;8.90;77.60;;;;;;2073355;28;20451;-82
2021/03/29 02:16:20;;;;;;;4.47;2.10;;;9.00;77.70;;;;;;2082009;28;20025;-83
2021/03/29 02:17:22;;;;;;;4.18;1.80;;;9.00;77.70;;;;;;2081636;28;20037;-83
2021/03/29 02:18:26;;;;;;;5.20;2.05;;;8.90;77.60;;;;;;2081448;28;20018;-82
2021/03/29 02:19:28;;;;;;;4.65;1.92;;;9.00;77.70;;;;;;2073859;28;20057;-82
2021/03/29 02:20:33;;;;;;;4.43;1.90;;;8.90;77.60;;;;;;2076771;28;20533;-82
2021/03/29 02:21:39;;;;;;;4.75;2.03;;;9.00;77.70;;;;;;2081442;28;20167;-82
2021/03/29 02:22:46;;;;;;;5.07;1.88;;;8.90;77.70;;;;;;2074458;28;20110;-82
2021/03/29 02:23:50;;;;;;;6.45;2.10;;;8.90;77.70;;;;;;2082839;28;20401;-82
2021/03/29 02:24:51;;;;;;;4.40;1.80;;;8.90;77.70;;;;;;2096924;28;20368;-83
2021/03/29 02:25:52;;;;;;;5.95;2.15;;;8.90;77.70;;;;;;2085200;28;20032;-82
2021/03/29 02:26:54;;;;;;;4.07;1.88;;;8.90;77.70;;;;;;2081253;28;20029;-82
2021/03/29 02:27:56;;;;;;;4.78;2.20;;;8.90;77.70;;;;;;2084552;28;20498;-82
2021/03/29 02:28:58;;;;;;;6.70;2.38;;;8.90;77.70;;;;;;2072549;28;20099;-82
2021/03/29 02:29:59;;;;;;;6.03;2.10;;;8.90;77.80;;;;;;2073211;28;20376;-82
2021/03/29 02:31:01;;;;;;;5.13;2.55;;;8.90;77.80;;;;;;2066025;28;20037;-83
2021/03/29 02:32:03;;;;;;;5.82;2.22;;;8.90;77.80;;;;;;2073113;28;20034;-82
2021/03/29 02:33:06;;;;;;;6.03;2.08;;;8.90;77.80;;;;;;2081391;28;20045;-82
2021/03/29 02:34:07;;;;;;;6.55;2.03;;;8.90;77.90;;;;;;2076942;28;20052;-82
2021/03/29 02:35:09;;;;;;;4.65;2.00;;;8.90;77.80;;;;;;2073365;28;20077;-82
2021/03/29 02:36:10;;;;;;;6.72;2.38;;;8.90;77.90;;;;;;2065285;28;20631;-83
2021/03/29 02:37:11;;;;;;;4.25;1.90;;;8.90;77.90;;;;;;2064358;28;20019;-81
2021/03/29 02:38:15;;;;;;;7.90;2.55;;;8.80;77.90;;;;;;2073165;28;20522;-82
2021/03/29 02:39:15;;;;;;;6.40;2.15;;;8.80;77.90;;;;;;2084967;28;20063;-82
2021/03/29 02:40:20;;;;;;;6.10;2.33;;;8.80;77.90;;;;;;2065603;28;20034;-82
2021/03/29 02:41:25;;;;;;;6.97;2.40;;;8.90;78.00;;;;;;2073422;28;20018;-82
2021/03/29 02:42:26;;;;;;;4.43;1.90;;;8.80;77.90;;;;;;2080001;28;20120;-82
2021/03/29 02:43:28;;;;;;;4.85;1.90;;;8.80;77.90;;;;;;2081195;28;20021;-82
2021/03/29 02:44:31;;;;;;;7.15;2.08;;;8.80;77.90;;;;;;2077516;28;20029;-83
2021/03/29 02:45:35;;;;;;;6.97;1.88;;;8.80;77.90;;;;;;2080293;28;20026;-83
2021/03/29 02:46:36;;;;;;;4.63;2.08;;;8.80;78.00;;;;;;2075191;28;20117;-83
2021/03/29 02:47:44;;;;;;;4.22;1.70;;;8.80;78.00;;;;;;2073109;28;20045;-83
2021/03/29 02:48:45;;;;;;;6.07;2.17;;;8.80;78.00;;;;;;2081274;28;20112;-83
2021/03/29 02:49:48;;;;;;;4.97;2.13;;;8.70;78.60;;;;;;2065082;28;20030;-83
2021/03/29 02:50:51;;;;;;;5.32;1.83;;;8.80;78.10;;;;;;2069036;28;20461;-83
2021/03/29 02:51:51;;;;;;;4.63;2.20;;;8.70;78.00;;;;;;2080982;28;20025;-83
2021/03/29 02:52:56;;;;;;;4.72;1.85;;;8.70;78.10;;;;;;2072819;28;20384;-83
2021/03/29 02:54:04;;;;;;;6.57;2.10;;;8.70;78.10;;;;;;2073547;28;20060;-83
2021/03/29 02:55:07;;;;;;;4.32;1.85;;;8.70;78.20;;;;;;2085011;28;20033;-83
2021/03/29 02:56:14;;;;;;;5.57;2.08;;;8.70;78.20;;;;;;2084177;28;20025;-83
2021/03/29 02:57:15;;;;;;;4.30;1.80;;;8.70;78.20;;;;;;2082569;28;20483;-82
2021/03/29 02:58:21;;;;;;;8.13;2.10;;;8.60;78.20;;;;;;2068932;28;20022;-83
2021/03/29 02:59:22;;;;;;;4.47;2.00;;;8.70;78.30;;;;;;2066125;28;20030;-83
2021/03/29 03:00:26;;;;;;;4.30;1.92;;;8.60;78.20;;;;;;2073117;28;20490;-83
2021/03/29 03:01:30;;;;;;;5.93;1.90;;;8.60;78.20;;;;;;2077532;28;20025;-83
2021/03/29 03:02:30;;;;;;;5.57;1.83;;;8.60;78.20;;;;;;2080707;28;20117;-82
2021/03/29 03:03:32;;;;;;;4.82;1.98;;;8.60;78.20;;;;;;2080721;28;20383;-82
2021/03/29 03:04:33;;;;;;;4.07;1.92;;;8.60;78.30;;;;;;2071071;28;20069;-83
2021/03/29 03:05:36;;;;;;;6.57;2.45;;;8.60;78.30;;;;;;2072880;28;20068;-83
2021/03/29 03:06:39;;;;;;;4.43;2.00;;;8.60;78.30;;;;;;2073155;28;20026;-83
2021/03/29 03:07:40;;;;;;;4.90;2.00;;;8.60;78.20;;;;;;2071915;28;20018;-82
2021/03/29 03:08:41;;;;;;;4.40;1.90;;;8.60;78.30;;;;;;2072853;28;20463;-82
2021/03/29 03:09:42;;;;;;;5.88;2.33;;;8.70;78.30;;;;;;2064958;28;20447;-83
2021/03/29 03:10:44;;;;;;;5.43;2.25;;;8.60;78.20;;;;;;2064842;28;20026;-83
2021/03/29 03:11:46;;;;;;;4.35;1.88;;;8.60;78.20;;;;;;2073112;28;20026;-83
2021/03/29 03:12:48;;;;;;;5.15;2.15;;;8.60;78.20;;;;;;2072880;28;20080;-83
2021/03/29 03:13:49;;;;;;;5.45;1.75;;;8.60;78.20;;;;;;2073096;28;20113;-82
2021/03/29 03:14:50;;;;;;;5.13;2.15;;;8.60;78.30;;;;;;2077324;28;20045;-83
2021/03/29 03:15:51;;;;;;;5.07;1.80;;;8.60;78.30;;;;;;2072696;28;20038;-82
2021/03/29 03:16:52;;;;;;;4.90;1.90;;;8.60;78.30;;;;;;2070471;28;20125;-82
2021/03/29 03:17:54;;;;;;;6.10;2.10;;;8.60;78.40;;;;;;2080974;28;20033;-82
2021/03/29 03:18:55;;;;;;;4.88;2.13;;;8.60;78.30;;;;;;2088373;28;20063;-82
2021/03/29 03:19:56;;;;;;;5.25;1.88;;;8.60;78.40;;;;;;2072758;28;20034;-82
2021/03/29 03:20:56;;;;;;;7.35;2.50;;;8.50;78.30;;;;;;2072868;28;20029;-82
2021/03/29 03:21:57;;;;;;;6.75;2.15;;;8.50;78.40;;;;;;2070796;28;20026;-83
2021/03/29 03:23:24;;;;;;;5.13;1.90;;;8.50;78.30;;;;;;2072696;28;20030;-82
2021/03/29 03:24:34;;;;;;;5.40;1.80;;;8.50;78.40;;;;;;2077363;28;20097;-82
2021/03/29 03:25:39;;;;;;;4.78;1.98;;;8.50;79.00;;;;;;2089385;28;20079;-82
2021/03/29 03:26:39;;;;;;;5.85;2.00;;;8.50;78.40;;;;;;2089100;28;20438;-82
2021/03/29 03:27:44;;;;;;;4.88;1.92;;;8.50;78.40;;;;;;2070672;28;20113;-82
2021/03/29 03:28:45;;;;;;;4.65;2.15;;;8.50;78.40;;;;;;2073636;28;20480;-83
2021/03/29 03:29:46;;;;;;;4.97;2.28;;;8.50;78.50;;;;;;2072832;28;20033;-82
2021/03/29 03:30:51;;;;;;;4.88;2.30;;;8.50;78.50;;;;;;2080499;28;20029;-84
2021/03/29 03:31:51;;;;;;;4.93;2.40;;;8.50;78.50;;;;;;2081663;28;20119;-84
2021/03/29 03:32:56;;;;;;;5.07;2.38;;;8.50;78.50;;;;;;2072172;28;20063;-83
2021/03/29 03:33:57;;;;;;;5.93;2.20;;;8.50;78.50;;;;;;2074029;28;20021;-83
2021/03/29 03:34:58;;;;;;;4.95;2.20;;;8.40;78.50;;;;;;2072754;28;20054;-83
2021/03/29 03:35:58;;;;;;;5.25;2.30;;;8.40;78.50;;;;;;2067626;28;20026;-83
2021/03/29 03:36:59;;;;;;;5.70;2.30;;;8.40;78.50;;;;;;2079911;28;20022;-83
2021/03/29 03:38:13;;;;;;;7.60;2.25;;;8.40;78.50;;;;;;2072545;28;20026;-83
2021/03/29 03:39:14;;;;;;;5.85;2.15;;;8.40;78.60;;;;;;2081982;28;20029;-83
2021/03/29 03:40:17;;;;;;;4.97;2.40;;;8.40;78.60;;;;;;2080812;28;20521;-82
2021/03/29 03:41:26;;;;;;;6.38;2.35;;;8.40;78.60;;;;;;2072413;28;20058;-84
2021/03/29 03:42:26;;;;;;;5.78;2.30;;;8.40;78.60;;;;;;2073759;28;20056;-83
2021/03/29 03:43:34;;;;;;;5.93;2.40;;;8.40;78.60;;;;;;2065515;28;20535;-83
2021/03/29 03:44:37;;;;;;;7.45;2.63;;;8.40;78.60;;;;;;2081436;28;20109;-83
2021/03/29 03:45:51;;;;;;;5.32;2.70;;;8.40;78.70;;;;;;2072983;28;20542;-83
2021/03/29 03:46:52;;;;;;;6.05;2.88;;;8.40;78.70;;;;;;2076742;28;20030;-83
2021/03/29 03:47:55;;;;;;;5.45;2.63;;;8.30;78.60;;;;;;2073296;28;20056;-83
2021/03/29 03:49:00;;;;;;;5.55;2.40;;;8.40;78.70;;;;;;2075204;28;20545;-83
2021/03/29 03:50:02;;;;;;;6.63;2.97;;;8.40;78.70;;;;;;2089016;28;20029;-83
2021/03/29 03:51:04;;;;;;;6.05;2.78;;;8.30;78.70;;;;;;2074972;28;20018;-83
2021/03/29 03:52:06;;;;;;;5.63;2.78;;;8.40;78.80;;;;;;2073337;28;20137;-83
2021/03/29 03:53:07;;;;;;;6.75;3.25;;;8.30;78.70;;;;;;2072763;28;20026;-82
2021/03/29 03:54:09;;;;;;;5.65;3.00;;;8.30;79.30;;;;;;2080452;28;20032;-83
2021/03/29 03:55:10;;;;;;;6.57;2.95;;;8.30;78.70;;;;;;2081093;28;20109;-83
2021/03/29 03:56:12;;;;;;;7.65;3.03;;;8.30;78.70;;;;;;2080883;28;20036;-82
2021/03/29 03:57:13;;;;;;;7.30;2.92;;;8.40;78.80;;;;;;2076156;28;20025;-82
2021/03/29 03:58:16;;;;;;;6.13;2.78;;;8.30;78.80;;;;;;2066159;28;20365;-83
2021/03/29 03:59:17;;;;;;;6.60;2.97;;;8.30;78.80;;;;;;2071763;28;20022;-83
2021/03/29 04:00:19;;;;;;;6.63;2.97;;;8.30;78.80;;;;;;2067149;28;20042;-83
2021/03/29 04:01:21;;;;;;;7.22;2.90;;;8.30;78.80;;;;;;2080785;28;20028;-83
2021/03/29 04:02:21;;;;;;;6.85;3.13;;;8.30;78.80;;;;;;2083597;28;20034;-82
2021/03/29 04:03:24;;;;;;;5.90;3.13;;;8.30;78.80;;;;;;2097733;28;20049;-83
2021/03/29 04:04:25;;;;;;;6.97;3.00;;;8.30;78.80;;;;;;2096544;28;20129;-82
2021/03/29 04:05:26;;;;;;;7.47;3.60;;;8.30;78.80;;;;;;2082803;28;20049;-82
2021/03/29 04:06:26;;;;;;;7.07;3.10;;;8.30;78.80;;;;;;2089299;28;20037;-83
2021/03/29 04:07:27;;;;;;;6.47;3.35;;;8.30;78.80;;;;;;2074371;28;20027;-83
2021/03/29 04:08:29;;;;;;;6.63;3.05;;;8.30;78.80;;;;;;2074285;28;20021;-83
2021/03/29 04:11:36;;;;;;;7.32;3.00;;;8.30;78.80;;;;;;2081379;28;20060;-83
2021/03/29 04:12:37;;;;;;;6.57;3.10;;;8.30;78.80;;;;;;2076463;28;20036;-82
2021/03/29 04:13:37;;;;;;;8.68;3.30;;;8.30;78.80;;;;;;2089831;28;20029;-82
2021/03/29 04:14:39;;;;;;;7.22;3.17;;;8.30;78.80;;;;;;2075678;28;20023;-83
2021/03/29 04:15:40;;;;;;;5.85;3.05;;;8.30;78.80;;;;;;2080799;28;20050;-83
2021/03/29 04:16:40;;;;;;;6.07;2.90;;;8.30;78.80;;;;;;2081484;28;20060;-83
2021/03/29 04:17:41;;;;;;;6.25;3.10;;;8.30;78.80;;;;;;2083502;28;20030;-83
2021/03/29 04:18:41;;;;;;;5.43;2.70;;;8.30;78.80;;;;;;2082208;28;20491;-82
2021/03/29 04:19:42;;;;;;;5.70;2.60;;;8.30;78.80;;;;;;2064209;28;20037;-83
2021/03/29 04:20:43;;;;;;;6.00;2.97;;;8.30;78.80;;;;;;2064797;28;20030;-82
2021/03/29 04:21:44;;;;;;;6.43;3.33;;;8.30;78.90;;;;;;2078555;28;20057;-83
2021/03/29 04:22:44;;;;;;;7.13;3.20;;;8.30;78.80;;;;;;2080447;28;20045;-83
2021/03/29 04:23:45;;;;;;;7.20;2.90;;;8.30;79.50;;;;;;2064579;28;20480;-83
2021/03/29 04:24:46;;;;;;;11.95;3.20;;;8.30;78.90;;;;;;2072823;28;20152;-83
2021/03/29 04:25:46;;;;;;;6.63;3.13;;;8.40;78.90;;;;;;2072798;28;20164;-83
2021/03/29 04:26:47;;;;;;;5.78;2.78;;;8.30;78.80;;;;;;2056511;28;20031;-83
2021/03/29 04:27:48;;;;;;;7.32;3.05;;;8.40;78.90;;;;;;2079870;28;20529;-83
2021/03/29 04:28:48;;;;;;;5.38;2.70;;;8.30;78.80;;;;;;2088283;28;20544;-83
2021/03/29 04:29:49;;;;;;;6.60;2.88;;;8.30;78.80;;;;;;2074440;28;20513;-83
2021/03/29 04:30:50;;;;;;;6.60;3.03;;;8.30;78.80;;;;;;2082650;28;20064;-82
2021/03/29 04:31:51;;;;;;;5.07;3.00;;;8.30;78.90;;;;;;2081170;28;20506;-83
2021/03/29 04:32:52;;;;;;;7.68;3.15;;;8.30;78.90;;;;;;2073847;28;20038;-82
2021/03/29 04:33:53;;;;;;;5.05;2.72;;;8.30;78.90;;;;;;2085908;28;20030;-83
2021/03/29 04:34:54;;;;;;;6.57;2.60;;;8.40;79.00;;;;;;2083570;28;20053;-82
2021/03/29 04:35:55;;;;;;;5.88;2.78;;;8.30;79.00;;;;;;2088984;28;20028;-82
2021/03/29 04:36:55;;;;;;;6.18;2.80;;;8.30;79.00;;;;;;2092293;28;20503;-82
2021/03/29 04:37:56;;;;;;;6.00;2.85;;;8.30;79.00;;;;;;2084222;28;20049;-83
2021/03/29 04:38:57;;;;;;;5.25;2.40;;;8.30;79.00;;;;;;2088712;28;20046;-83
2021/03/29 04:39:58;;;;;;;5.63;2.35;;;8.30;79.00;;;;;;2076083;28;20472;-83
2021/03/29 04:40:59;;;;;;;4.70;2.40;;;8.30;79.10;;;;;;2078216;28;20057;-82
2021/03/29 04:42:00;;;;;;;5.97;2.35;;;8.30;79.10;;;;;;2077831;28;20447;-82
2021/03/29 04:43:01;;;;;;;7.38;2.75;;;8.30;79.10;;;;;;2074907;28;20029;-82
2021/03/29 04:44:01;;;;;;;7.25;2.67;;;8.30;79.10;;;;;;2075430;28;20050;-82
2021/03/29 04:45:04;;;;;;;6.80;2.80;;;8.30;79.10;;;;;;2081721;28;20509;-82
2021/03/29 04:46:04;;;;;;;5.15;2.40;;;8.30;79.10;;;;;;2089366;28;20123;-82
2021/03/29 04:47:05;;;;;;;7.18;2.70;;;8.30;79.10;;;;;;2082243;28;20021;-84
2021/03/29 04:48:06;;;;;;;5.72;2.22;;;8.30;79.20;;;;;;2078346;28;20033;-82
2021/03/29 04:49:07;;;;;;;4.72;2.15;;;8.30;79.20;;;;;;2080726;28;20033;-83
2021/03/29 04:50:09;;;;;;;5.05;2.17;;;8.30;79.20;;;;;;2082176;28;20116;-82
2021/03/29 04:51:10;;;;;;;5.13;2.30;;;8.30;79.20;;;;;;2076659;28;20026;-83
2021/03/29 04:52:10;;;;;;;5.53;2.22;;;8.30;79.20;;;;;;2085119;28;20033;-82
2021/03/29 04:53:11;;;;;;;6.10;2.08;;;8.30;79.20;;;;;;2065582;28;20484;-82
2021/03/29 04:54:12;;;;;;;5.82;2.33;;;8.30;79.20;;;;;;2049515;28;20035;-82
2021/03/29 04:55:15;;;;;;;5.03;2.10;;;8.30;79.20;;;;;;2065847;28;20057;-82
2021/03/29 04:56:16;;;;;;;5.38;1.88;;;8.30;79.20;;;;;;2080142;28;20029;-82
2021/03/29 04:57:16;;;;;;;5.35;2.13;;;8.30;79.20;;;;;;2082074;28;20034;-82
2021/03/29 04:58:17;;;;;;;3.80;1.73;;;8.30;79.20;;;;;;2081400;28;20562;-82
2021/03/29 04:59:18;;;;;;;5.20;1.98;;;8.30;79.20;;;;;;2081889;28;20065;-82
2021/03/29 05:00:18;;;;;;;3.83;1.98;;;8.30;79.20;;;;;;2085713;28;20036;-82
2021/03/29 05:01:19;;;;;;;5.18;2.00;;;8.30;79.20;;;;;;2088322;28;20503;-82
2021/03/29 05:02:20;;;;;;;5.03;1.75;;;8.30;79.20;;;;;;2082042;28;20116;-82
2021/03/29 05:03:20;;;;;;;5.00;1.88;;;8.30;79.20;;;;;;2073595;28;20021;-83
2021/03/29 05:04:21;;;;;;;3.83;1.85;;;8.30;79.20;;;;;;2077707;28;20037;-82
2021/03/29 05:05:21;;;;;;;4.30;1.90;;;8.40;79.30;;;;;;2077972;28;20496;-82
2021/03/29 05:06:22;;;;;;;4.45;2.00;;;8.30;79.20;;;;;;2057478;28;20031;-82
2021/03/29 05:07:23;;;;;;;4.65;2.03;;;8.30;79.90;;;;;;2059824;28;20175;-82
2021/03/29 05:08:23;;;;;;;3.20;1.50;;;8.30;79.20;;;;;;2073912;28;20038;-82
2021/03/29 05:09:24;;;;;;;3.60;1.63;;;8.30;79.30;;;;;;2081906;28;20128;-82
2021/03/29 05:10:25;;;;;;;3.85;1.60;;;8.30;79.30;;;;;;2091905;28;20075;-83
2021/03/29 05:11:33;;;;;;;4.30;1.80;;;8.30;79.30;;;;;;2081652;28;20025;-82
2021/03/29 05:12:34;;;;;;;4.30;2.03;;;8.30;79.30;;;;;;2068200;28;20058;-82
2021/03/29 05:13:34;;;;;;;5.32;1.70;;;8.30;79.40;;;;;;2065316;28;20500;-82
2021/03/29 05:14:39;;;;;;;5.20;1.70;;;8.30;79.40;;;;;;2081893;28;20128;-83
2021/03/29 05:15:40;;;;;;;4.68;1.80;;;8.30;79.40;;;;;;2089584;28;20013;-82
2021/03/29 05:16:42;;;;;;;3.75;1.60;;;8.30;79.40;;;;;;2071784;28;20508;-82
2021/03/29 05:17:42;;;;;;;6.90;1.80;;;8.30;79.40;;;;;;2072257;28;20103;-82
2021/03/29 05:18:43;;;;;;;4.93;1.73;;;8.30;79.50;;;;;;2082593;28;20470;-82
2021/03/29 05:19:44;;;;;;;5.15;1.67;;;8.30;79.50;;;;;;2081932;28;20479;-83
2021/03/29 05:20:44;;;;;;;4.95;1.67;;;8.30;79.60;;;;;;2081061;28;20520;-83
2021/03/29 05:21:45;;;;;;;5.55;1.90;;;8.30;79.50;;;;;;2073403;28;20057;-83
2021/03/29 05:22:45;;;;;;;2.88;1.27;;;8.20;79.50;;;;;;2068430;28;20038;-84
2021/03/29 05:23:46;;;;;;;4.97;1.80;;;8.20;80.10;;;;;;2082393;28;20503;-83
2021/03/29 05:24:47;;;;;;;3.35;1.40;;;8.20;79.60;;;;;;2081594;28;20036;-83
2021/03/29 05:25:47;;;;;;;4.53;1.83;;;8.20;79.80;;;;;;2065577;28;20026;-83
2021/03/29 05:26:48;;;;;;;4.63;1.73;;;8.20;79.60;;;;;;2079745;28;20391;-82
2021/03/29 05:27:49;;;;;;;4.70;1.60;;;8.20;79.60;;;;;;2081184;28;20040;-83
2021/03/29 05:28:49;;;;;;;4.43;1.48;;;8.20;79.60;;;;;;2073544;28;20026;-83
2021/03/29 05:29:51;;;;;;;4.15;1.67;;;8.20;79.60;;;;;;2068807;28;20028;-83
2021/03/29 05:30:52;;;;;;;4.10;1.60;;;8.20;79.60;;;;;;2081285;28;20112;-83
2021/03/29 05:31:55;;;;;;;3.50;1.50;;;8.20;79.60;;;;;;2081582;28;20419;-84
2021/03/29 05:32:56;;;;;;;2.97;1.60;;;8.20;79.70;;;;;;2088086;28;20390;-85